createdAt,value
2022-12-03T00:01:31.670Z,101900.48
2022-12-03T00:06:34.988Z,101900.52
2022-12-03T00:11:37.846Z,101894.20
2022-12-03T00:16:40.709Z,101893.11
2022-12-03T00:21:43.599Z,101887.55
2022-12-03T00:26:46.461Z,101888.14
2022-12-03T00:31:49.335Z,101890.24
2022-12-03T00:36:52.182Z,101886.52
2022-12-03T00:41:55.029Z,101882.44
2022-12-03T00:46:57.890Z,101881.84
2022-12-03T00:52:00.835Z,101881.35
2022-12-03T00:57:03.783Z,101879.89
2022-12-03T01:02:08.301Z,101878.64
2022-12-03T01:07:11.235Z,101875.00
2022-12-03T01:12:14.086Z,101875.90
2022-12-03T01:17:16.847Z,101871.88
2022-12-03T01:22:19.672Z,101869.42
2022-12-03T01:27:22.486Z,101869.52
2022-12-03T01:32:25.324Z,101868.81
2022-12-03T01:37:28.700Z,101866.73
2022-12-03T01:42:34.116Z,101864.02
2022-12-03T01:47:37.126Z,101865.72
2022-12-03T01:52:39.937Z,101860.08
2022-12-03T01:57:48.524Z,101862.66
2022-12-03T02:02:56.085Z,101862.09
2022-12-03T02:07:59.875Z,101866.44
2022-12-03T02:13:08.474Z,101866.46
2022-12-03T02:18:11.316Z,101863.98
2022-12-03T02:23:21.504Z,101865.30
2022-12-03T02:28:24.242Z,101859.64
2022-12-03T02:33:27.115Z,101861.15
2022-12-03T02:38:30.388Z,101860.52
2022-12-03T02:43:33.253Z,101860.94
2022-12-03T02:48:37.283Z,101862.11
2022-12-03T02:53:46.564Z,101864.11
2022-12-03T02:58:50.494Z,101862.31
2022-12-03T03:03:53.314Z,101864.65
2022-12-03T03:08:56.281Z,101866.40
2022-12-03T03:14:02.365Z,101863.10
2022-12-03T03:19:05.241Z,101862.36
2022-12-03T03:24:08.226Z,101860.95
2022-12-03T03:29:11.107Z,101858.53
2022-12-03T03:34:14.449Z,101854.71
2022-12-03T03:39:17.702Z,101854.71
2022-12-03T03:44:20.557Z,101852.97
2022-12-03T03:49:23.377Z,101853.63
2022-12-03T03:54:26.257Z,101849.98
2022-12-03T03:59:29.224Z,101840.95
2022-12-03T04:04:35.469Z,101839.39
2022-12-03T04:09:38.277Z,101843.33
2022-12-03T04:14:41.161Z,101848.23
2022-12-03T04:19:44.285Z,101850.05
2022-12-03T04:24:49.344Z,101850.06
2022-12-03T04:29:52.199Z,101847.02
2022-12-03T04:35:13.868Z,101846.86
2022-12-03T04:40:35.483Z,101839.96
2022-12-03T04:45:38.296Z,101832.57
2022-12-03T04:50:41.110Z,101832.44
2022-12-03T04:55:44.070Z,101822.70
2022-12-03T05:00:47.495Z,101832.29
2022-12-03T05:05:50.467Z,101830.41
2022-12-03T05:10:53.566Z,101830.86
2022-12-03T05:15:56.484Z,101827.39
2022-12-03T05:20:59.655Z,101821.90
2022-12-03T05:26:03.116Z,101824.80
2022-12-03T05:31:06.843Z,101817.74
2022-12-03T05:36:10.323Z,101819.15
2022-12-03T05:41:31.793Z,101817.79
2022-12-03T05:46:34.702Z,101814.21
2022-12-03T05:51:37.791Z,101810.43
2022-12-03T05:56:40.582Z,101806.65
2022-12-03T06:01:43.501Z,101806.97
2022-12-03T06:06:46.332Z,101803.98
2022-12-03T06:11:53.579Z,101802.33
2022-12-03T06:16:56.450Z,101802.83
2022-12-03T06:22:00.902Z,101802.32
2022-12-03T06:27:03.751Z,101805.39
2022-12-03T06:32:06.785Z,101810.79
2022-12-03T06:37:09.814Z,101813.08
2022-12-03T06:42:13.941Z,101813.88
2022-12-03T06:47:17.287Z,101819.35
2022-12-03T06:52:20.202Z,101819.27
2022-12-03T06:57:23.046Z,101827.70
2022-12-03T07:02:26.055Z,101830.03
2022-12-03T07:07:29.045Z,101834.02
2022-12-03T07:12:32.794Z,101838.22
2022-12-03T07:17:35.687Z,101838.14
2022-12-03T07:22:38.525Z,101834.98
2022-12-03T07:27:42.398Z,101833.32
2022-12-03T07:32:45.236Z,101832.02
2022-12-03T07:37:48.047Z,101829.25
2022-12-03T07:42:51.023Z,101822.70
2022-12-03T07:47:53.824Z,101816.55
2022-12-03T07:52:59.183Z,101816.13
2022-12-03T07:58:02.326Z,101815.87
2022-12-03T08:03:05.175Z,101812.02
2022-12-03T08:08:08.002Z,101814.64
2022-12-03T08:13:15.129Z,101818.58
2022-12-03T08:18:20.730Z,101815.68
2022-12-03T08:23:25.276Z,101813.81
2022-12-03T08:28:28.387Z,101812.35
2022-12-03T08:33:36.169Z,101812.88
2022-12-03T08:38:39.308Z,101816.73
2022-12-03T08:43:43.983Z,101820.38
2022-12-03T08:48:49.516Z,101819.46
2022-12-03T09:00:59.877Z,101814.63
2022-12-03T10:05:48.875Z,101783.51
2022-12-03T10:10:56.601Z,101776.21
2022-12-03T10:16:05.145Z,101768.27
2022-12-03T10:21:59.743Z,101759.89
2022-12-03T10:27:26.133Z,101756.12
2022-12-03T10:32:46.844Z,101761.73
2022-12-03T10:38:02.939Z,101768.20
2022-12-03T10:43:22.029Z,101764.44
2022-12-03T10:48:26.468Z,101760.54
2022-12-03T10:53:32.203Z,101757.70
2022-12-03T10:58:39.985Z,101753.24
2022-12-03T11:03:42.846Z,101752.92
2022-12-03T11:08:57.829Z,101742.42
2022-12-03T11:14:05.516Z,101742.02
2022-12-03T11:19:20.717Z,101738.63
2022-12-03T11:24:23.468Z,101739.27
2022-12-03T11:29:44.815Z,101738.94
2022-12-03T11:34:47.705Z,101742.20
2022-12-03T11:39:50.824Z,101738.66
2022-12-03T11:45:04.585Z,101743.04
2022-12-03T11:50:39.410Z,101727.11
2022-12-03T11:55:49.742Z,101727.86
2022-12-03T12:00:56.630Z,101722.98
2022-12-03T12:06:07.060Z,101717.83
2022-12-03T12:11:36.091Z,101715.50
2022-12-03T12:48:31.715Z,101702.16
2022-12-03T12:53:37.264Z,101697.02
2022-12-03T13:06:26.962Z,101698.66
2022-12-03T13:11:46.059Z,101702.04
2022-12-03T13:17:54.805Z,101702.19
2022-12-03T13:35:31.568Z,101710.46
2022-12-03T13:40:37.668Z,101715.94
2022-12-03T13:45:43.804Z,101716.02
2022-12-03T13:50:47.021Z,101713.62
2022-12-03T13:56:14.435Z,101711.52
2022-12-03T14:01:17.401Z,101719.31
2022-12-03T14:06:20.462Z,101711.81
2022-12-03T14:11:42.547Z,101716.52
2022-12-03T14:16:46.968Z,101728.52
2022-12-03T14:21:50.083Z,101730.64
2022-12-03T14:26:52.903Z,101720.38
2022-12-03T14:31:56.230Z,101713.08
2022-12-03T14:36:59.103Z,101710.30
2022-12-03T14:42:14.148Z,101718.23
2022-12-03T14:47:20.303Z,101721.64
2022-12-03T14:52:23.158Z,101721.98
2022-12-03T14:57:26.259Z,101715.77
2022-12-03T15:02:30.341Z,101703.66
2022-12-03T15:07:34.675Z,101716.69
2022-12-03T15:12:37.575Z,101729.59
2022-12-03T15:17:40.401Z,101736.25
2022-12-03T15:22:43.300Z,101736.91
2022-12-03T15:27:46.098Z,101738.54
2022-12-03T15:32:49.535Z,101744.21
2022-12-03T15:37:52.599Z,101746.64
2022-12-03T15:42:55.408Z,101743.19
2022-12-03T15:47:59.745Z,101750.95
2022-12-03T15:53:04.030Z,101766.04
2022-12-03T15:58:08.556Z,101759.84
2022-12-03T16:03:11.393Z,101756.70
2022-12-03T16:08:14.688Z,101761.67
2022-12-03T16:13:17.734Z,101771.29
2022-12-03T16:18:20.643Z,101763.76
2022-12-03T16:23:23.501Z,101766.21
2022-12-03T16:28:27.036Z,101763.65
2022-12-03T16:33:32.308Z,101772.75
2022-12-03T16:38:35.449Z,101773.77
2022-12-03T16:43:39.040Z,101774.09
2022-12-03T16:48:41.933Z,101775.73
2022-12-03T16:53:45.300Z,101775.86
2022-12-03T16:58:49.875Z,101774.02
2022-12-03T17:03:53.100Z,101779.98
2022-12-03T17:08:55.873Z,101782.36
2022-12-03T17:13:58.859Z,101775.15
2022-12-03T17:19:03.021Z,101768.30
2022-12-03T17:24:07.545Z,101761.14
2022-12-03T17:29:10.947Z,101759.60
2022-12-03T17:34:14.833Z,101758.30
2022-12-03T17:39:17.749Z,101763.53
2022-12-03T17:44:21.500Z,101760.42
2022-12-03T17:49:31.166Z,101771.77
2022-12-03T17:55:01.842Z,101774.95
2022-12-03T17:59:59.123Z,101774.69
2022-12-03T18:05:02.518Z,101773.90
2022-12-03T18:10:06.404Z,101776.23
2022-12-03T18:15:09.851Z,101765.96
2022-12-03T18:20:12.884Z,101767.55
2022-12-03T18:25:18.090Z,101765.76
2022-12-03T18:30:21.288Z,101759.23
2022-12-03T18:35:24.681Z,101759.07
2022-12-03T18:40:27.567Z,101762.13
2022-12-03T18:45:30.529Z,101761.16
2022-12-03T18:50:35.567Z,101762.84
2022-12-03T18:55:38.603Z,101760.90
2022-12-03T19:00:42.594Z,101759.98
2022-12-03T19:05:45.615Z,101760.95
2022-12-03T19:10:59.799Z,101766.59
2022-12-03T19:16:06.636Z,101774.02
2022-12-03T19:21:14.126Z,101768.84
2022-12-03T19:26:17.650Z,101770.21
2022-12-03T19:31:20.796Z,101775.54
2022-12-03T19:36:27.586Z,101766.52
2022-12-03T19:41:33.280Z,101756.78
2022-12-03T19:46:36.167Z,101748.48
2022-12-03T19:51:39.102Z,101743.99
2022-12-03T19:56:42.105Z,101749.11
2022-12-03T20:01:45.156Z,101764.17
2022-12-03T20:06:48.569Z,101765.63
2022-12-03T20:11:53.908Z,101768.70
2022-12-03T20:16:56.890Z,101762.98
2022-12-03T20:22:02.760Z,101762.45
2022-12-03T20:27:06.234Z,101759.58
2022-12-03T20:32:09.743Z,101759.90
2022-12-03T20:37:12.636Z,101760.63
2022-12-03T20:42:15.719Z,101757.65
2022-12-03T20:47:19.506Z,101749.09
2022-12-03T20:52:22.688Z,101749.94
2022-12-03T20:57:26.323Z,101757.38
2022-12-03T21:02:29.207Z,101758.36
2022-12-03T21:07:32.989Z,101767.02
2022-12-03T21:12:36.137Z,101773.02
2022-12-03T21:17:39.177Z,101779.25
2022-12-03T21:22:42.547Z,101770.28
2022-12-03T21:27:45.370Z,101767.30
2022-12-03T21:32:48.434Z,101767.55
2022-12-03T21:37:51.964Z,101774.82
2022-12-03T21:42:54.810Z,101772.44
2022-12-03T21:47:57.812Z,101767.02
2022-12-03T21:53:00.767Z,101777.02
2022-12-03T21:58:03.737Z,101789.05
2022-12-03T22:03:07.886Z,101786.64
2022-12-03T22:08:16.455Z,101789.33
2022-12-03T22:13:19.436Z,101791.88
2022-12-03T22:18:23.434Z,101786.02
2022-12-03T22:23:27.752Z,101782.20
2022-12-03T22:28:31.781Z,101779.93
2022-12-03T22:33:35.285Z,101777.58
2022-12-03T22:38:38.116Z,101778.07
2022-12-03T22:43:41.405Z,101777.62
2022-12-03T22:48:46.159Z,101765.41
2022-12-03T22:53:57.144Z,101757.66
2022-12-03T22:59:01.696Z,101754.34
2022-12-03T23:04:06.376Z,101765.45
2022-12-03T23:09:09.335Z,101774.29
2022-12-03T23:14:12.969Z,101774.16
2022-12-03T23:19:21.025Z,101770.23
2022-12-03T23:24:23.883Z,101774.79
2022-12-03T23:29:27.191Z,101777.97
2022-12-03T23:34:30.199Z,101773.48
2022-12-03T23:39:33.206Z,101771.77
2022-12-03T23:44:37.198Z,101763.86
2022-12-03T23:49:39.983Z,101756.25
2022-12-03T23:54:42.828Z,101757.35
2022-12-03T23:59:45.581Z,101751.13
